Time;durP1;ratioP1;P1;durP2;ratioP2;P2;SDS_P1;SDS_P2;PMS_P1;PMS_P2;Temp;Humidity;BMP_temperature;BMP_pressure;BME280_temperature;BME280_humidity;BME280_pressure;Samples;Min_cycle;Max_cycle;Signal;HPM_P1;HPM_P2
2021/05/22 00:01:18;;;;;;;1.60;0.47;;;;;;;;;;5095808;28;20680;-69
2021/05/22 00:03:45;;;;;;;0.20;0.20;;;;;;;;;;5113876;28;20243;-69
2021/05/22 00:06:11;;;;;;;0.30;0.20;;;;;;;;;;5095363;28;20735;-69
2021/05/22 00:08:37;;;;;;;0.13;0.13;;;;;;;;;;5113712;28;20227;-69
2021/05/22 00:11:04;;;;;;;0.10;0.10;;;;;;;;;;5113574;28;20221;-69
2021/05/22 00:13:30;;;;;;;0.37;0.30;;;;;;;;;;5094339;28;20235;-69
2021/05/22 00:15:57;;;;;;;0.20;0.20;;;;;;;;;;5113271;28;20287;-69
2021/05/22 00:18:24;;;;;;;0.17;0.17;;;;;;;;;;5113403;28;20718;-69
2021/05/22 00:20:51;;;;;;;0.10;0.10;;;;;;;;;;5113288;28;20650;-69
2021/05/22 00:23:17;;;;;;;0.83;0.30;;;;;;;;;;5113409;28;20816;-69
2021/05/22 00:25:44;;;;;;;0.47;0.30;;;;;;;;;;5113014;28;20634;-69
2021/05/22 00:28:10;;;;;;;0.10;0.10;;;;;;;;;;5113171;28;20748;-69
2021/05/22 00:30:37;;;;;;;0.30;0.30;;;;;;;;;;5113423;28;20642;-69
2021/05/22 00:33:03;;;;;;;0.20;0.20;;;;;;;;;;5113209;28;20208;-69
2021/05/22 00:35:30;;;;;;;0.27;0.17;;;;;;;;;;5112822;28;20664;-69
2021/05/22 00:37:56;;;;;;;0.10;0.10;;;;;;;;;;5113210;28;20226;-69
2021/05/22 00:40:23;;;;;;;0.77;0.43;;;;;;;;;;5112922;28;20287;-69
2021/05/22 00:42:49;;;;;;;0.10;0.10;;;;;;;;;;5113298;28;20204;-69
2021/05/22 00:45:17;;;;;;;0.13;0.13;;;;;;;;;;5112730;28;20647;-69
2021/05/22 00:47:45;;;;;;;0.20;0.20;;;;;;;;;;5112919;28;20757;-69
2021/05/22 00:50:13;;;;;;;0.10;0.10;;;;;;;;;;5094704;28;20223;-69
2021/05/22 00:52:40;;;;;;;0.57;0.20;;;;;;;;;;5112999;28;20257;-69
2021/05/22 00:55:06;;;;;;;0.10;0.10;;;;;;;;;;5112797;28;20200;-69
2021/05/22 00:57:33;;;;;;;0.23;0.20;;;;;;;;;;5112888;28;20253;-69
2021/05/22 01:34:08;;;;;;;1.60;0.20;;;;;;;;;;5109941;27;20565;-69
2021/05/22 01:36:34;;;;;;;0.20;0.17;;;;;;;;;;5091565;28;20238;-69
2021/05/22 01:39:01;;;;;;;0.10;0.10;;;;;;;;;;5091672;28;20307;-69
2021/05/22 01:41:27;;;;;;;0.50;0.30;;;;;;;;;;5091934;28;20670;-70
2021/05/22 01:43:56;;;;;;;0.77;0.20;;;;;;;;;;5109796;28;20196;-70
2021/05/22 01:46:23;;;;;;;0.20;0.20;;;;;;;;;;5109307;28;20723;-70
2021/05/22 01:48:50;;;;;;;0.63;0.40;;;;;;;;;;5091659;28;20255;-69
2021/05/22 01:51:19;;;;;;;0.20;0.20;;;;;;;;;;5128362;27;20279;-68
2021/05/22 01:53:45;;;;;;;0.10;0.10;;;;;;;;;;5130205;28;20234;-68
2021/05/22 01:56:12;;;;;;;0.10;0.10;;;;;;;;;;5129678;28;20225;-68
2021/05/22 01:58:39;;;;;;;0.17;0.10;;;;;;;;;;5119426;28;20223;-68
2021/05/22 02:01:09;;;;;;;0.77;0.43;;;;;;;;;;5109225;28;20200;-68
2021/05/22 02:03:41;;;;;;;0.10;0.10;;;;;;;;;;5109255;28;20760;-68
2021/05/22 02:06:13;;;;;;;0.23;0.20;;;;;;;;;;5108987;28;20204;-68
2021/05/22 02:08:42;;;;;;;0.10;0.10;;;;;;;;;;5109358;28;20249;-68
2021/05/22 02:11:08;;;;;;;0.10;0.10;;;;;;;;;;5074458;28;20287;-67
2021/05/22 02:13:35;;;;;;;0.23;0.20;;;;;;;;;;5109077;28;20227;-68
2021/05/22 02:16:03;;;;;;;0.20;0.20;;;;;;;;;;5108528;28;20634;-68
2021/05/22 02:18:31;;;;;;;0.20;0.10;;;;;;;;;;5108887;28;20227;-70
2021/05/22 02:20:58;;;;;;;0.10;0.10;;;;;;;;;;5108975;28;20200;-68
2021/05/22 02:23:25;;;;;;;0.40;0.20;;;;;;;;;;5109070;28;20226;-69
2021/05/22 02:25:56;;;;;;;0.20;0.20;;;;;;;;;;5108579;28;20620;-70
2021/05/22 02:28:23;;;;;;;0.60;0.10;;;;;;;;;;5090524;28;20224;-69
2021/05/22 02:30:50;;;;;;;0.63;0.30;;;;;;;;;;5108483;28;20210;-70
2021/05/22 02:33:18;;;;;;;0.10;0.10;;;;;;;;;;5108465;28;20227;-70
2021/05/22 02:35:46;;;;;;;0.40;0.20;;;;;;;;;;5090630;28;20426;-70
2021/05/22 02:38:14;;;;;;;0.47;0.33;;;;;;;;;;5108676;28;20565;-69
2021/05/22 02:40:41;;;;;;;0.10;0.10;;;;;;;;;;5108714;28;20291;-70
2021/05/22 02:43:08;;;;;;;0.17;0.10;;;;;;;;;;5107531;28;20291;-72
2021/05/22 02:45:37;;;;;;;0.17;0.17;;;;;;;;;;5072431;28;20209;-70
2021/05/22 02:48:05;;;;;;;0.20;0.20;;;;;;;;;;5074554;28;20239;-70
2021/05/22 02:50:33;;;;;;;0.30;0.30;;;;;;;;;;5098877;28;20207;-70
2021/05/22 02:52:59;;;;;;;0.20;0.20;;;;;;;;;;5114880;28;20698;-69
2021/05/22 02:55:26;;;;;;;0.10;0.10;;;;;;;;;;5096802;28;20200;-70
2021/05/22 02:57:52;;;;;;;0.10;0.10;;;;;;;;;;5111157;28;20255;-69
2021/05/22 03:00:20;;;;;;;0.20;0.20;;;;;;;;;;5094607;28;20240;-70
2021/05/22 03:02:46;;;;;;;0.63;0.17;;;;;;;;;;5076713;28;20207;-70
2021/05/22 03:05:14;;;;;;;0.77;0.30;;;;;;;;;;5094163;28;20261;-70
2021/05/22 03:07:41;;;;;;;2.13;0.43;;;;;;;;;;5094335;28;20278;-70
2021/05/22 03:10:07;;;;;;;0.00;0.00;;;;;;;;;;5094404;28;20269;-70
2021/05/22 03:12:35;;;;;;;0.10;0.10;;;;;;;;;;5094023;28;20564;-70
2021/05/22 03:15:06;;;;;;;0.23;0.23;;;;;;;;;;5076342;28;20246;-70
2021/05/22 03:17:33;;;;;;;0.07;0.07;;;;;;;;;;5094087;28;20683;-70
2021/05/22 03:19:59;;;;;;;3.83;0.10;;;;;;;;;;5094201;28;20246;-70
2021/05/22 03:22:26;;;;;;;0.00;0.00;;;;;;;;;;5094148;28;20239;-70
2021/05/22 03:24:53;;;;;;;0.30;0.30;;;;;;;;;;5076223;28;20201;-70
2021/05/22 03:27:19;;;;;;;0.20;0.20;;;;;;;;;;5075928;28;20295;-70
2021/05/22 03:29:45;;;;;;;0.30;0.30;;;;;;;;;;5093914;28;20677;-70
2021/05/22 03:32:12;;;;;;;0.23;0.20;;;;;;;;;;5094013;28;20299;-69
2021/05/22 03:34:38;;;;;;;0.50;0.20;;;;;;;;;;5093723;28;20239;-69
2021/05/22 03:37:05;;;;;;;0.10;0.10;;;;;;;;;;5093871;28;20283;-70
2021/05/22 03:39:31;;;;;;;0.50;0.10;;;;;;;;;;5093715;28;20319;-70
2021/05/22 03:41:58;;;;;;;0.10;0.10;;;;;;;;;;5093892;28;20291;-70
2021/05/22 03:44:25;;;;;;;0.20;0.10;;;;;;;;;;5081923;28;20197;-70
2021/05/22 03:46:51;;;;;;;0.10;0.10;;;;;;;;;;5073380;28;20295;-70
2021/05/22 03:49:17;;;;;;;0.10;0.10;;;;;;;;;;5077073;28;20308;-69
2021/05/22 03:51:44;;;;;;;0.27;0.20;;;;;;;;;;5113924;28;20232;-70
2021/05/22 03:54:10;;;;;;;0.03;0.03;;;;;;;;;;5095628;28;20281;-70
2021/05/22 03:56:37;;;;;;;0.10;0.10;;;;;;;;;;5112787;28;20196;-70
2021/05/22 03:59:03;;;;;;;0.03;0.03;;;;;;;;;;5099863;28;20307;-69
2021/05/22 04:01:30;;;;;;;3.37;0.30;;;;;;;;;;5093428;28;20200;-69
2021/05/22 04:03:56;;;;;;;0.00;0.00;;;;;;;;;;5093511;28;20638;-69
2021/05/22 04:06:23;;;;;;;0.30;0.10;;;;;;;;;;5093010;28;20245;-69
2021/05/22 04:08:49;;;;;;;1.30;0.37;;;;;;;;;;5093305;28;20260;-70
2021/05/22 04:11:15;;;;;;;0.00;0.00;;;;;;;;;;5093073;28;20558;-69
2021/05/22 04:13:42;;;;;;;0.10;0.10;;;;;;;;;;5093308;28;20320;-69
2021/05/22 04:16:08;;;;;;;0.00;0.00;;;;;;;;;;5092949;28;20623;-69
2021/05/22 04:18:35;;;;;;;0.00;0.00;;;;;;;;;;5093185;28;20596;-69
2021/05/22 04:21:01;;;;;;;0.00;0.00;;;;;;;;;;5092962;28;20240;-69
2021/05/22 04:23:28;;;;;;;0.13;0.10;;;;;;;;;;5092807;28;20204;-69
2021/05/22 04:25:54;;;;;;;0.07;0.07;;;;;;;;;;5092800;28;20274;-69
2021/05/22 04:28:20;;;;;;;0.10;0.10;;;;;;;;;;5092989;28;20256;-69
2021/05/22 04:30:47;;;;;;;0.20;0.20;;;;;;;;;;5092785;28;20658;-70
2021/05/22 04:33:13;;;;;;;0.10;0.10;;;;;;;;;;5092602;28;20315;-69
2021/05/22 04:35:40;;;;;;;0.00;0.00;;;;;;;;;;5092470;28;20243;-69
2021/05/22 04:38:06;;;;;;;0.10;0.10;;;;;;;;;;5092494;28;20713;-70
2021/05/22 04:40:33;;;;;;;0.00;0.00;;;;;;;;;;5092823;28;20287;-69
2021/05/22 04:42:59;;;;;;;0.60;0.27;;;;;;;;;;5092704;28;20249;-70
2021/05/22 04:45:26;;;;;;;0.10;0.10;;;;;;;;;;5054410;28;20232;-70
2021/05/22 04:47:52;;;;;;;0.07;0.07;;;;;;;;;;5054479;28;20324;-70
2021/05/22 04:50:19;;;;;;;0.10;0.10;;;;;;;;;;5094261;28;20200;-70
2021/05/22 04:52:45;;;;;;;0.10;0.10;;;;;;;;;;5116161;28;20227;-70
2021/05/22 04:55:12;;;;;;;0.33;0.20;;;;;;;;;;5116631;28;20204;-70
2021/05/22 04:57:38;;;;;;;0.10;0.10;;;;;;;;;;5113708;28;20223;-69
2021/05/22 05:00:07;;;;;;;0.10;0.10;;;;;;;;;;5093228;28;20703;-69
2021/05/22 05:02:33;;;;;;;0.07;0.07;;;;;;;;;;5092426;28;20232;-70
2021/05/22 05:05:00;;;;;;;0.10;0.10;;;;;;;;;;5091866;28;20607;-70
2021/05/22 05:07:26;;;;;;;0.70;0.40;;;;;;;;;;5073770;28;20222;-70
2021/05/22 05:09:52;;;;;;;0.17;0.17;;;;;;;;;;5092024;28;20639;-69
2021/05/22 05:12:20;;;;;;;0.10;0.10;;;;;;;;;;5074095;28;20689;-69
2021/05/22 05:14:46;;;;;;;0.40;0.20;;;;;;;;;;5091980;28;20315;-69
2021/05/22 05:17:13;;;;;;;0.10;0.10;;;;;;;;;;5092067;28;20232;-70
2021/05/22 05:19:39;;;;;;;0.10;0.10;;;;;;;;;;5091896;28;20240;-70
2021/05/22 05:22:06;;;;;;;0.23;0.17;;;;;;;;;;5092317;28;20239;-70
2021/05/22 05:24:32;;;;;;;0.50;0.20;;;;;;;;;;5091711;28;20235;-69
2021/05/22 05:26:59;;;;;;;0.10;0.10;;;;;;;;;;5091968;28;20572;-70
2021/05/22 05:29:25;;;;;;;0.10;0.10;;;;;;;;;;5073999;28;20698;-70
2021/05/22 05:31:51;;;;;;;0.03;0.03;;;;;;;;;;5091751;28;20721;-69
2021/05/22 05:34:18;;;;;;;0.10;0.10;;;;;;;;;;5073542;28;20270;-69
2021/05/22 05:36:44;;;;;;;0.10;0.10;;;;;;;;;;5091890;28;20298;-69
2021/05/22 05:39:12;;;;;;;0.10;0.10;;;;;;;;;;5091917;28;20216;-69
2021/05/22 05:41:38;;;;;;;0.03;0.03;;;;;;;;;;5074010;28;20257;-69
2021/05/22 05:44:07;;;;;;;0.00;0.00;;;;;;;;;;5082504;28;20201;-69
2021/05/22 05:46:34;;;;;;;0.10;0.10;;;;;;;;;;5071362;28;20780;-69
2021/05/22 05:49:00;;;;;;;0.23;0.23;;;;;;;;;;5071767;28;20263;-68
2021/05/22 05:51:27;;;;;;;1.40;0.63;;;;;;;;;;5093335;28;20208;-69
2021/05/22 05:53:53;;;;;;;0.10;0.10;;;;;;;;;;5111988;28;20318;-69
2021/05/22 05:56:20;;;;;;;0.50;0.30;;;;;;;;;;5093900;28;20206;-68
2021/05/22 05:58:46;;;;;;;0.13;0.13;;;;;;;;;;5082540;28;20220;-69
2021/05/22 06:01:14;;;;;;;0.20;0.17;;;;;;;;;;5091484;28;20238;-69
2021/05/22 06:03:42;;;;;;;0.43;0.20;;;;;;;;;;5091752;28;20204;-69
2021/05/22 06:06:09;;;;;;;0.30;0.10;;;;;;;;;;5091430;28;20218;-69
2021/05/22 06:08:35;;;;;;;0.40;0.27;;;;;;;;;;5070276;28;20304;-69
2021/05/22 06:11:03;;;;;;;0.30;0.03;;;;;;;;;;5071317;28;20206;-68
2021/05/22 06:13:32;;;;;;;0.27;0.20;;;;;;;;;;5071052;28;20232;-69
2021/05/22 06:16:25;;;;;;;0.20;0.20;;;;;;;;;;5053047;28;20205;-68
2021/05/22 06:18:45;;;;;;;0.10;0.10;;;;;;;;;;5071049;28;20304;-68
2021/05/22 06:21:12;;;;;;;0.20;0.20;;;;;;;;;;5075052;28;20292;-68
2021/05/22 06:23:38;;;;;;;0.40;0.20;;;;;;;;;;5074874;28;20670;-68
2021/05/22 06:26:05;;;;;;;0.93;0.27;;;;;;;;;;5074472;28;20640;-66
2021/05/22 06:28:32;;;;;;;0.10;0.10;;;;;;;;;;5074862;28;20260;-67
2021/05/22 06:31:02;;;;;;;0.20;0.10;;;;;;;;;;5074550;28;20251;-67
2021/05/22 06:33:28;;;;;;;0.10;0.10;;;;;;;;;;5074060;28;21002;-67
2021/05/22 06:35:55;;;;;;;0.20;0.20;;;;;;;;;;5080000;28;20688;-66
2021/05/22 06:38:21;;;;;;;0.20;0.20;;;;;;;;;;5089594;28;20534;-70
2021/05/22 06:40:48;;;;;;;0.13;0.13;;;;;;;;;;5088519;28;20231;-68
2021/05/22 06:43:14;;;;;;;0.32;0.30;;;;;;;;;;5069748;28;20232;-66
2021/05/22 06:45:43;;;;;;;1.77;0.20;;;;;;;;;;5068068;28;20239;-66
2021/05/22 06:48:10;;;;;;;1.20;0.20;;;;;;;;;;5069065;28;20221;-66
2021/05/22 06:50:38;;;;;;;0.10;0.10;;;;;;;;;;5077050;28;20199;-67
2021/05/22 06:53:05;;;;;;;0.20;0.20;;;;;;;;;;5091422;28;20232;-66
2021/05/22 06:55:31;;;;;;;0.57;0.30;;;;;;;;;;5087491;28;20236;-67
2021/05/22 06:57:59;;;;;;;0.00;0.00;;;;;;;;;;5070866;28;20225;-68
2021/05/22 07:00:26;;;;;;;0.68;0.30;;;;;;;;;;5089624;28;20291;-68
2021/05/22 07:02:52;;;;;;;0.10;0.10;;;;;;;;;;5086885;28;20742;-67
2021/05/22 07:05:19;;;;;;;1.15;0.25;;;;;;;;;;5064269;28;20391;-64
2021/05/22 07:07:45;;;;;;;0.55;0.20;;;;;;;;;;5088975;28;20223;-64
2021/05/22 07:10:12;;;;;;;0.10;0.10;;;;;;;;;;5088240;28;20247;-66
2021/05/22 07:12:39;;;;;;;1.02;0.52;;;;;;;;;;5086625;28;20304;-67
2021/05/22 07:15:07;;;;;;;0.05;0.05;;;;;;;;;;5085521;28;20717;-66
2021/05/22 07:17:33;;;;;;;1.13;0.15;;;;;;;;;;5086074;28;20296;-67
2021/05/22 07:20:00;;;;;;;0.65;0.28;;;;;;;;;;5072617;28;20844;-66
2021/05/22 07:22:26;;;;;;;0.32;0.32;;;;;;;;;;5086665;28;20243;-66
2021/05/22 07:24:53;;;;;;;0.08;0.00;;;;;;;;;;5087546;28;20226;-66
2021/05/22 07:27:20;;;;;;;0.30;0.17;;;;;;;;;;5088014;28;20236;-68
2021/05/22 07:29:47;;;;;;;0.52;0.20;;;;;;;;;;5070533;28;20228;-65
2021/05/22 07:32:14;;;;;;;0.45;0.20;;;;;;;;;;5088120;28;20208;-67
2021/05/22 07:34:40;;;;;;;0.10;0.08;;;;;;;;;;5087779;28;20236;-69
2021/05/22 07:37:06;;;;;;;0.10;0.10;;;;;;;;;;5089129;28;20197;-68
2021/05/22 07:39:33;;;;;;;0.40;0.20;;;;;;;;;;5088258;28;20225;-66
2021/05/22 07:42:00;;;;;;;0.10;0.10;;;;;;;;;;5088318;28;20215;-67
2021/05/22 07:44:26;;;;;;;1.80;0.45;;;;;;;;;;5088129;28;20223;-67
2021/05/22 07:46:53;;;;;;;0.45;0.40;;;;;;;;;;5087879;28;20232;-67
2021/05/22 07:49:19;;;;;;;0.32;0.13;;;;;;;;;;5072756;28;20252;-67
2021/05/22 07:51:46;;;;;;;0.55;0.40;;;;;;;;;;5110783;28;20199;-67
2021/05/22 07:54:13;;;;;;;0.17;0.17;;;;;;;;;;5112644;28;20494;-65
2021/05/22 07:56:39;;;;;;;0.20;0.20;;;;;;;;;;5112748;28;20672;-66
2021/05/22 07:59:05;;;;;;;0.93;0.47;;;;;;;;;;5113966;28;20310;-67
2021/05/22 08:01:33;;;;;;;0.43;0.13;;;;;;;;;;5087646;28;20658;-67
2021/05/22 08:03:59;;;;;;;0.47;0.32;;;;;;;;;;5081203;28;20306;-67
2021/05/22 08:06:26;;;;;;;0.10;0.10;;;;;;;;;;5087897;28;20322;-67
2021/05/22 08:08:52;;;;;;;0.77;0.38;;;;;;;;;;5082772;28;20295;-67
2021/05/22 08:11:19;;;;;;;0.30;0.30;;;;;;;;;;5075907;28;20235;-69
2021/05/22 08:13:45;;;;;;;0.10;0.10;;;;;;;;;;5087387;28;20654;-68
2021/05/22 08:16:12;;;;;;;1.50;0.75;;;;;;;;;;5086262;28;20633;-67
2021/05/22 08:18:38;;;;;;;0.98;0.70;;;;;;;;;;5085582;28;20273;-68
2021/05/22 08:21:05;;;;;;;0.30;0.30;;;;;;;;;;5068973;28;20224;-67
2021/05/22 08:23:32;;;;;;;2.05;0.52;;;;;;;;;;5082761;28;20552;-68
2021/05/22 08:25:58;;;;;;;0.13;0.13;;;;;;;;;;5084632;28;20236;-69
2021/05/22 08:28:45;;;;;;;0.10;0.10;;;;;;;;;;5084511;28;20587;-68
2021/05/22 08:31:11;;;;;;;0.82;0.30;;;;;;;;;;5085397;28;20735;-66
2021/05/22 08:33:38;;;;;;;0.28;0.20;;;;;;;;;;5082877;28;20423;-66
2021/05/22 08:36:04;;;;;;;0.10;0.10;;;;;;;;;;5084350;28;20240;-65
2021/05/22 08:38:31;;;;;;;1.58;0.38;;;;;;;;;;5087243;28;20255;-65
2021/05/22 08:40:58;;;;;;;0.20;0.13;;;;;;;;;;5086440;28;20212;-66
2021/05/22 08:43:25;;;;;;;0.40;0.20;;;;;;;;;;5085142;28;20189;-67
2021/05/22 08:45:51;;;;;;;0.10;0.10;;;;;;;;;;5083505;28;20236;-65
2021/05/22 08:48:17;;;;;;;1.20;0.45;;;;;;;;;;5081097;28;20251;-66
2021/05/22 08:50:44;;;;;;;0.03;0.03;;;;;;;;;;5083619;28;20209;-66
2021/05/22 08:53:10;;;;;;;0.20;0.20;;;;;;;;;;5082216;28;20229;-71
2021/05/22 08:55:36;;;;;;;1.15;0.52;;;;;;;;;;5073842;28;20238;-69
2021/05/22 08:58:03;;;;;;;0.25;0.13;;;;;;;;;;5084122;28;20256;-68
2021/05/22 09:00:38;;;;;;;0.10;0.10;;;;;;;;;;5084775;28;20219;-67
2021/05/22 09:03:08;;;;;;;0.82;0.20;;;;;;;;;;5070462;28;20296;-67
2021/05/22 09:05:35;;;;;;;2.28;0.57;;;;;;;;;;5083806;28;20220;-65
2021/05/22 09:08:05;;;;;;;0.73;0.20;;;;;;;;;;5084100;28;20293;-65
2021/05/22 09:10:33;;;;;;;0.10;0.10;;;;;;;;;;5082840;28;20207;-65
2021/05/22 09:13:00;;;;;;;0.10;0.10;;;;;;;;;;5088545;28;20232;-66
2021/05/22 09:15:31;;;;;;;0.20;0.20;;;;;;;;;;5087717;28;20292;-68
2021/05/22 09:17:59;;;;;;;0.20;0.20;;;;;;;;;;5088475;28;20228;-67
2021/05/22 09:20:27;;;;;;;0.00;0.00;;;;;;;;;;5089408;28;20227;-66
2021/05/22 09:22:57;;;;;;;0.35;0.20;;;;;;;;;;5089473;28;20208;-66
2021/05/22 09:25:24;;;;;;;0.20;0.20;;;;;;;;;;5088373;28;20299;-66
2021/05/22 09:27:52;;;;;;;0.15;0.13;;;;;;;;;;5089390;28;20251;-67
2021/05/22 09:30:18;;;;;;;0.10;0.10;;;;;;;;;;5074586;28;20296;-66
2021/05/22 09:32:45;;;;;;;1.73;0.50;;;;;;;;;;5088322;28;20299;-67
2021/05/22 09:35:13;;;;;;;1.02;0.20;;;;;;;;;;5088378;28;20208;-66
2021/05/22 09:37:44;;;;;;;0.03;0.03;;;;;;;;;;5088588;28;20301;-66
2021/05/22 09:40:15;;;;;;;1.35;0.40;;;;;;;;;;5088211;28;20589;-66
2021/05/22 09:42:42;;;;;;;0.60;0.40;;;;;;;;;;5054571;28;20196;-67
2021/05/22 09:45:41;;;;;;;0.70;0.35;;;;;;;;;;5084641;28;20592;-66
2021/05/22 09:48:09;;;;;;;1.17;0.20;;;;;;;;;;5047464;28;20766;-67
2021/05/22 09:50:54;;;;;;;0.82;0.20;;;;;;;;;;5089962;28;20439;-66
2021/05/22 09:53:23;;;;;;;0.30;0.22;;;;;;;;;;5086805;28;20200;-67
2021/05/22 09:56:09;;;;;;;0.30;0.13;;;;;;;;;;5091977;28;20258;-67
2021/05/22 09:58:36;;;;;;;1.17;0.63;;;;;;;;;;5092056;28;20311;-66
2021/05/22 10:01:03;;;;;;;0.28;0.13;;;;;;;;;;5092178;28;20743;-66
2021/05/22 10:03:30;;;;;;;0.45;0.30;;;;;;;;;;5089056;28;20266;-66
2021/05/22 10:05:56;;;;;;;0.40;0.22;;;;;;;;;;5092100;28;20225;-67
2021/05/22 10:08:23;;;;;;;0.80;0.20;;;;;;;;;;5090437;28;20832;-65
2021/05/22 10:10:50;;;;;;;2.05;0.50;;;;;;;;;;5081219;28;20339;-67
2021/05/22 10:13:19;;;;;;;1.20;0.40;;;;;;;;;;5091373;28;20211;-65
2021/05/22 10:15:47;;;;;;;0.75;0.30;;;;;;;;;;5091279;28;20258;-68
2021/05/22 10:18:16;;;;;;;0.30;0.13;;;;;;;;;;5091367;28;20225;-65
2021/05/22 10:20:43;;;;;;;0.17;0.10;;;;;;;;;;5083781;28;20674;-63
2021/05/22 10:23:09;;;;;;;0.38;0.28;;;;;;;;;;5073715;28;20235;-64
2021/05/22 10:25:36;;;;;;;0.60;0.30;;;;;;;;;;5087191;28;20344;-66
2021/05/22 10:28:04;;;;;;;0.70;0.40;;;;;;;;;;5086941;28;20225;-65
2021/05/22 10:30:30;;;;;;;0.32;0.30;;;;;;;;;;5091907;28;20200;-67
2021/05/22 10:33:04;;;;;;;0.17;0.10;;;;;;;;;;5092064;28;20213;-67
2021/05/22 10:35:43;;;;;;;0.52;0.40;;;;;;;;;;5090256;28;20262;-67
2021/05/22 10:38:09;;;;;;;0.47;0.30;;;;;;;;;;5091821;28;20225;-65
2021/05/22 10:40:54;;;;;;;0.73;0.43;;;;;;;;;;5090866;28;20232;-67
2021/05/22 10:43:39;;;;;;;0.52;0.20;;;;;;;;;;5091335;28;20208;-66
2021/05/22 10:46:06;;;;;;;0.47;0.35;;;;;;;;;;5090471;28;20224;-67
2021/05/22 10:48:32;;;;;;;0.10;0.10;;;;;;;;;;5091426;28;20221;-66
2021/05/22 10:50:59;;;;;;;0.20;0.20;;;;;;;;;;5090890;28;20266;-67
2021/05/22 10:53:32;;;;;;;0.25;0.25;;;;;;;;;;5082226;28;20292;-67
2021/05/22 10:56:08;;;;;;;0.22;0.20;;;;;;;;;;5070167;28;20230;-66
2021/05/22 10:58:36;;;;;;;1.08;0.52;;;;;;;;;;5091221;28;20268;-66
2021/05/22 11:01:21;;;;;;;0.38;0.25;;;;;;;;;;5091798;28;20204;-66
2021/05/22 11:04:21;;;;;;;0.52;0.40;;;;;;;;;;5091589;28;20243;-66
2021/05/22 11:06:49;;;;;;;0.00;0.00;;;;;;;;;;5073000;28;20239;-67
2021/05/22 11:09:28;;;;;;;0.57;0.20;;;;;;;;;;5091164;28;20323;-67
2021/05/22 11:12:01;;;;;;;1.40;0.38;;;;;;;;;;5084610;28;20633;-67
2021/05/22 11:14:37;;;;;;;1.20;0.45;;;;;;;;;;5082020;28;20684;-66
2021/05/22 11:17:28;;;;;;;2.10;0.43;;;;;;;;;;5090454;28;20283;-67
2021/05/22 11:20:01;;;;;;;0.95;0.32;;;;;;;;;;5076407;28;20247;-66
2021/05/22 11:22:31;;;;;;;0.20;0.10;;;;;;;;;;5089351;28;20201;-68
2021/05/22 11:25:01;;;;;;;0.10;0.10;;;;;;;;;;5080379;28;20213;-67
2021/05/22 11:27:51;;;;;;;3.00;0.43;;;;;;;;;;5087873;28;20292;-67
2021/05/22 11:30:21;;;;;;;0.77;0.30;;;;;;;;;;5091828;28;20188;-69
2021/05/22 11:32:56;;;;;;;0.15;0.13;;;;;;;;;;5089051;28;20239;-70
2021/05/22 11:35:32;;;;;;;0.63;0.25;;;;;;;;;;5085508;28;20249;-67
2021/05/22 11:38:19;;;;;;;0.40;0.20;;;;;;;;;;5089465;28;20239;-69
2021/05/22 11:40:56;;;;;;;2.60;0.65;;;;;;;;;;5080757;28;20588;-70
2021/05/22 11:43:28;;;;;;;0.22;0.17;;;;;;;;;;5088299;28;20201;-70
2021/05/22 11:45:55;;;;;;;3.30;0.82;;;;;;;;;;5072385;28;20764;-69
2021/05/22 11:48:31;;;;;;;1.27;0.40;;;;;;;;;;5087914;28;20323;-69
2021/05/22 11:50:58;;;;;;;0.38;0.30;;;;;;;;;;5076082;28;20200;-69
2021/05/22 11:53:25;;;;;;;2.72;0.22;;;;;;;;;;5089261;28;20208;-69
2021/05/22 11:56:02;;;;;;;0.10;0.10;;;;;;;;;;5089039;28;20239;-69
2021/05/22 11:58:29;;;;;;;0.32;0.30;;;;;;;;;;5088743;28;20335;-68
2021/05/22 12:01:06;;;;;;;1.70;0.30;;;;;;;;;;5080177;28;20269;-68
2021/05/22 12:03:33;;;;;;;0.38;0.30;;;;;;;;;;5089215;28;20205;-68
2021/05/22 12:05:59;;;;;;;0.47;0.38;;;;;;;;;;5088957;28;20224;-69
2021/05/22 12:08:29;;;;;;;0.20;0.10;;;;;;;;;;5089170;28;20225;-69
2021/05/22 12:10:55;;;;;;;0.10;0.10;;;;;;;;;;5069535;28;20299;-69
2021/05/22 12:13:23;;;;;;;0.20;0.10;;;;;;;;;;5082282;28;20208;-69
2021/05/22 12:15:50;;;;;;;1.95;0.30;;;;;;;;;;5083795;28;20658;-69
2021/05/22 12:18:17;;;;;;;1.77;0.47;;;;;;;;;;5075849;28;20303;-69
2021/05/22 12:20:50;;;;;;;0.65;0.15;;;;;;;;;;5084031;28;20244;-70
2021/05/22 12:23:30;;;;;;;0.70;0.20;;;;;;;;;;5084078;28;20970;-69
2021/05/22 12:25:58;;;;;;;0.30;0.20;;;;;;;;;;5085226;28;20657;-69
2021/05/22 12:28:24;;;;;;;0.38;0.10;;;;;;;;;;5087341;28;20267;-69
2021/05/22 12:30:52;;;;;;;0.60;0.20;;;;;;;;;;5088756;28;20723;-69
2021/05/22 12:33:19;;;;;;;0.20;0.20;;;;;;;;;;5070645;28;20208;-73
2021/05/22 12:36:00;;;;;;;0.05;0.03;;;;;;;;;;5070940;28;20201;-69
2021/05/22 12:38:39;;;;;;;0.73;0.20;;;;;;;;;;5088287;28;20753;-69
2021/05/22 12:41:05;;;;;;;1.20;0.30;;;;;;;;;;5088570;28;20283;-70
2021/05/22 12:43:42;;;;;;;0.70;0.22;;;;;;;;;;5088226;28;20250;-69
2021/05/22 12:46:28;;;;;;;4.40;0.20;;;;;;;;;;5088618;28;20227;-70
2021/05/22 12:49:08;;;;;;;1.98;0.30;;;;;;;;;;5088568;28;20234;-70
2021/05/22 12:51:35;;;;;;;0.20;0.20;;;;;;;;;;5068511;28;20347;-69
2021/05/22 12:54:21;;;;;;;0.75;0.20;;;;;;;;;;5088904;28;20288;-70
2021/05/22 12:57:01;;;;;;;0.45;0.30;;;;;;;;;;5077470;28;20299;-69
2021/05/22 12:59:28;;;;;;;0.17;0.10;;;;;;;;;;5088861;28;20230;-69
2021/05/22 13:02:13;;;;;;;0.20;0.20;;;;;;;;;;5087060;28;20232;-70
2021/05/22 13:04:40;;;;;;;0.82;0.25;;;;;;;;;;5088270;28;20208;-69
2021/05/22 13:07:07;;;;;;;0.17;0.17;;;;;;;;;;5088295;28;20583;-69
2021/05/22 13:09:34;;;;;;;0.87;0.30;;;;;;;;;;5088402;28;20244;-69
2021/05/22 13:12:02;;;;;;;0.10;0.10;;;;;;;;;;5078710;28;20232;-69
2021/05/22 13:14:47;;;;;;;0.22;0.22;;;;;;;;;;5087827;28;20201;-69
2021/05/22 13:17:14;;;;;;;0.38;0.28;;;;;;;;;;5088013;28;20228;-69
2021/05/22 13:19:45;;;;;;;0.17;0.17;;;;;;;;;;5088044;28;20281;-69
2021/05/22 13:22:18;;;;;;;0.30;0.28;;;;;;;;;;5082016;28;20245;-69
2021/05/22 13:24:57;;;;;;;1.60;0.28;;;;;;;;;;5087605;28;20201;-70
2021/05/22 13:27:23;;;;;;;0.13;0.13;;;;;;;;;;5085260;28;20686;-69
2021/05/22 13:30:03;;;;;;;0.70;0.28;;;;;;;;;;5052833;28;20227;-71
2021/05/22 13:32:29;;;;;;;0.38;0.17;;;;;;;;;;5068861;28;20223;-69
2021/05/22 13:34:56;;;;;;;0.22;0.17;;;;;;;;;;5054003;28;20724;-69
2021/05/22 13:37:23;;;;;;;1.00;0.47;;;;;;;;;;5086263;28;20326;-69
2021/05/22 13:39:49;;;;;;;0.10;0.10;;;;;;;;;;5086947;28;20292;-69
2021/05/22 13:42:15;;;;;;;0.10;0.10;;;;;;;;;;5085124;28;20769;-69
2021/05/22 13:44:42;;;;;;;0.63;0.37;;;;;;;;;;5060369;28;20580;-69
2021/05/22 13:47:09;;;;;;;0.10;0.10;;;;;;;;;;5072535;28;20411;-69
2021/05/22 13:49:35;;;;;;;0.68;0.40;;;;;;;;;;5088395;28;20746;-70
2021/05/22 13:52:02;;;;;;;0.95;0.43;;;;;;;;;;5086649;28;20236;-69
2021/05/22 13:54:29;;;;;;;0.10;0.10;;;;;;;;;;5086666;28;20685;-70
2021/05/22 13:56:55;;;;;;;0.20;0.20;;;;;;;;;;5085451;28;20204;-69
2021/05/22 13:59:22;;;;;;;3.10;0.35;;;;;;;;;;5076615;28;20650;-70
2021/05/22 14:01:48;;;;;;;0.10;0.10;;;;;;;;;;5086736;28;20208;-70
2021/05/22 14:04:15;;;;;;;0.05;0.05;;;;;;;;;;5086662;28;20285;-69
2021/05/22 14:06:41;;;;;;;0.55;0.25;;;;;;;;;;5069163;28;20224;-70
2021/05/22 14:09:08;;;;;;;0.65;0.20;;;;;;;;;;5072874;28;20273;-70
2021/05/22 14:11:34;;;;;;;0.65;0.30;;;;;;;;;;5077627;28;20200;-70
2021/05/22 14:14:01;;;;;;;0.35;0.10;;;;;;;;;;5086818;28;20204;-69
2021/05/22 14:16:27;;;;;;;1.25;0.20;;;;;;;;;;5086593;28;20278;-69
2021/05/22 14:18:54;;;;;;;0.38;0.28;;;;;;;;;;5086575;28;20228;-69
2021/05/22 14:21:20;;;;;;;0.52;0.40;;;;;;;;;;5073486;28;20265;-69
2021/05/22 14:23:47;;;;;;;2.28;0.68;;;;;;;;;;5077579;28;20280;-70
2021/05/22 14:26:14;;;;;;;0.30;0.20;;;;;;;;;;5086401;28;20225;-69
2021/05/22 14:28:44;;;;;;;0.00;0.00;;;;;;;;;;5086349;28;20232;-70
2021/05/22 14:31:11;;;;;;;0.08;0.08;;;;;;;;;;5072438;28;20736;-70
2021/05/22 14:33:38;;;;;;;0.15;0.15;;;;;;;;;;5085681;28;20227;-69
2021/05/22 14:36:04;;;;;;;0.30;0.20;;;;;;;;;;5067082;28;20664;-69
2021/05/22 14:38:32;;;;;;;0.13;0.13;;;;;;;;;;5085240;28;20293;-70
2021/05/22 14:40:58;;;;;;;11.70;0.65;;;;;;;;;;5070099;28;20200;-69
2021/05/22 14:43:25;;;;;;;0.22;0.15;;;;;;;;;;5088227;28;20246;-69
2021/05/22 14:45:51;;;;;;;0.45;0.30;;;;;;;;;;5087495;28;20646;-71
2021/05/22 14:48:20;;;;;;;0.47;0.28;;;;;;;;;;5082241;28;20308;-69
2021/05/22 14:50:48;;;;;;;0.28;0.28;;;;;;;;;;5070532;28;20224;-70
2021/05/22 14:53:14;;;;;;;0.17;0.17;;;;;;;;;;5089066;28;20299;-69
2021/05/22 14:55:41;;;;;;;0.47;0.30;;;;;;;;;;5089116;28;20208;-69
2021/05/22 14:58:07;;;;;;;0.32;0.17;;;;;;;;;;5089329;28;20252;-70
2021/05/22 15:00:34;;;;;;;1.40;0.32;;;;;;;;;;5062300;28;20299;-70
2021/05/22 15:03:01;;;;;;;0.50;0.32;;;;;;;;;;5088519;28;20227;-69
2021/05/22 15:05:28;;;;;;;0.22;0.20;;;;;;;;;;5088361;28;20204;-70
2021/05/22 15:07:54;;;;;;;0.38;0.22;;;;;;;;;;5085031;28;20672;-69
2021/05/22 15:10:22;;;;;;;0.20;0.20;;;;;;;;;;5084370;28;20204;-70
2021/05/22 15:12:50;;;;;;;0.45;0.32;;;;;;;;;;5089011;28;20367;-69
2021/05/22 15:15:17;;;;;;;0.10;0.10;;;;;;;;;;5089295;28;20629;-71
2021/05/22 15:17:43;;;;;;;0.63;0.20;;;;;;;;;;5089206;28;20230;-69
2021/05/22 15:20:11;;;;;;;0.68;0.38;;;;;;;;;;5089039;28;20196;-71
2021/05/22 15:22:37;;;;;;;0.10;0.10;;;;;;;;;;5086548;28;20293;-69
2021/05/22 15:25:04;;;;;;;0.10;0.10;;;;;;;;;;5065887;28;20216;-69